Time;durP1;ratioP1;P1;durP2;ratioP2;P2;SDS_P1;SDS_P2;PMS_P1;PMS_P2;Temp;Humidity;BMP_temperature;BMP_pressure;BME280_temperature;BME280_humidity;BME280_pressure;Samples;Min_cycle;Max_cycle;Signal;HPM_P1;HPM_P2
2021/11/09 00:01:14;;;;;;;14.32;7.78;;;10.90;99.90;;;10.37;100.00;102155.28;4135490;28;20038;-68
2021/11/09 00:03:15;;;;;;;13.77;7.65;;;10.90;99.90;;;10.37;100.00;102160.53;4128496;28;20082;-68
2021/11/09 00:05:19;;;;;;;21.08;8.98;;;10.90;99.90;;;10.27;100.00;102147.25;4129851;28;20393;-67
2021/11/09 00:07:26;;;;;;;15.98;8.27;;;10.90;99.90;;;10.23;100.00;102145.81;4135101;28;20029;-67
2021/11/09 00:09:33;;;;;;;17.92;8.43;;;10.90;99.90;;;10.38;100.00;102151.69;4135292;28;20031;-68
2021/11/09 00:11:35;;;;;;;14.32;7.78;;;10.90;99.90;;;10.37;100.00;102150.84;4135727;28;20030;-68
2021/11/09 00:13:36;;;;;;;14.32;7.82;;;10.90;99.90;;;10.33;100.00;102145.94;4135618;28;20559;-68
2021/11/09 00:15:37;;;;;;;18.25;8.30;;;10.90;99.90;;;10.32;100.00;102149.53;4134158;28;20046;-68
2021/11/09 00:17:39;;;;;;;14.93;7.05;;;10.90;99.90;;;10.33;100.00;102151.22;4135495;28;20027;-67
2021/11/09 00:19:39;;;;;;;12.32;7.43;;;11.00;99.90;;;10.33;100.00;102143.31;4135537;28;20509;-68
2021/11/09 00:21:40;;;;;;;16.13;8.43;;;10.90;99.90;;;10.34;100.00;102145.81;4135156;28;20031;-68
2021/11/09 00:23:41;;;;;;;13.20;7.43;;;11.00;99.90;;;10.35;100.00;102146.66;4122300;28;20019;-67
2021/11/09 00:25:43;;;;;;;10.43;7.30;;;11.00;99.90;;;10.36;100.00;102146.50;4135495;28;20105;-67
2021/11/09 00:27:44;;;;;;;18.38;7.88;;;10.90;99.90;;;10.35;100.00;102144.00;4135500;28;20022;-68
2021/11/09 00:29:47;;;;;;;14.30;7.93;;;10.90;99.90;;;10.31;100.00;102143.41;4135325;28;20113;-68
2021/11/09 00:31:48;;;;;;;13.77;8.07;;;10.90;99.90;;;10.32;100.00;102149.53;4134205;28;20480;-67
2021/11/09 00:33:49;;;;;;;16.80;8.15;;;10.90;99.90;;;10.32;100.00;102139.81;4122260;28;20038;-68
2021/11/09 00:35:50;;;;;;;17.83;8.13;;;10.90;99.90;;;10.34;100.00;102137.03;4122123;28;20031;-68
2021/11/09 00:37:53;;;;;;;14.02;8.55;;;10.90;99.90;;;10.33;100.00;102140.66;4134480;28;20030;-67
2021/11/09 00:39:53;;;;;;;14.43;7.40;;;10.90;99.90;;;10.33;100.00;102138.88;4137878;28;20030;-68
2021/11/09 00:41:54;;;;;;;18.65;8.38;;;10.90;99.90;;;10.32;100.00;102145.09;4138284;28;20088;-68
2021/11/09 00:43:55;;;;;;;13.52;7.10;;;11.00;99.90;;;10.39;100.00;102140.19;4138236;28;20026;-69
2021/11/09 00:45:56;;;;;;;13.68;8.27;;;10.90;99.90;;;10.39;100.00;102137.53;4127727;28;20035;-68
2021/11/09 00:47:59;;;;;;;15.32;6.72;;;10.90;99.90;;;10.33;100.00;102141.50;4134849;28;20054;-68
2021/11/09 00:50:00;;;;;;;14.27;7.20;;;10.90;99.90;;;10.31;100.00;102140.78;4121717;28;20027;-68
2021/11/09 00:52:01;;;;;;;11.73;8.00;;;10.90;99.90;;;10.31;100.00;102142.56;4129022;28;20494;-68
2021/11/09 00:54:04;;;;;;;13.98;8.15;;;10.90;99.90;;;10.37;100.00;102147.34;4138010;28;20035;-68
2021/11/09 00:56:05;;;;;;;14.70;7.63;;;10.90;99.90;;;10.37;100.00;102142.06;4137846;28;20033;-68
2021/11/09 00:58:06;;;;;;;14.60;7.38;;;10.90;99.90;;;10.36;100.00;102141.22;4137893;28;20037;-68
2021/11/09 01:00:10;;;;;;;12.98;8.40;;;10.90;99.90;;;10.31;100.00;102137.28;4137981;28;20026;-68
2021/11/09 01:02:11;;;;;;;17.42;6.45;;;11.00;99.90;;;10.31;100.00;102137.28;4137933;28;20030;-68
2021/11/09 01:04:12;;;;;;;11.45;7.28;;;10.90;99.90;;;10.29;100.00;102142.69;4137945;28;20034;-68
2021/11/09 01:06:13;;;;;;;13.70;8.07;;;10.90;99.90;;;10.24;100.00;102120.28;4137792;28;20084;-68
2021/11/09 01:08:17;;;;;;;15.20;8.15;;;10.90;99.90;;;10.33;100.00;102135.38;4137738;28;20486;-68
2021/11/09 01:10:18;;;;;;;14.38;9.13;;;10.90;99.90;;;10.30;100.00;102140.91;4137932;28;20022;-68
2021/11/09 01:12:19;;;;;;;13.82;8.98;;;10.90;99.90;;;10.30;100.00;102141.75;4137713;28;20039;-68
2021/11/09 01:14:22;;;;;;;12.43;8.60;;;10.90;99.90;;;10.26;100.00;102134.19;4137588;28;20058;-67
2021/11/09 01:16:23;;;;;;;11.75;7.65;;;10.90;99.90;;;10.28;100.00;102132.25;4137632;28;20034;-68
2021/11/09 01:18:35;;;;;;;13.68;8.70;;;10.90;99.90;;;10.19;100.00;102128.53;4137648;28;20030;-68
2021/11/09 01:20:38;;;;;;;12.10;7.28;;;10.90;99.90;;;10.30;100.00;102135.63;4137611;28;20041;-68
2021/11/09 01:22:40;;;;;;;13.10;7.72;;;10.90;99.90;;;10.35;100.00;102144.84;4130810;28;20054;-68
2021/11/09 01:24:41;;;;;;;15.02;7.70;;;10.90;99.90;;;10.39;100.00;102137.53;4121487;28;20030;-68
2021/11/09 01:26:42;;;;;;;13.88;8.00;;;10.90;99.90;;;10.33;100.00;102135.38;4121204;28;20077;-68
2021/11/09 01:28:47;;;;;;;13.40;7.10;;;10.90;99.90;;;10.31;100.00;102143.41;4121458;28;20038;-68
2021/11/09 01:30:48;;;;;;;15.38;8.38;;;10.90;99.90;;;10.30;100.00;102140.91;4121322;28;20035;-67
2021/11/09 01:32:52;;;;;;;9.80;7.68;;;10.90;99.90;;;10.26;100.00;102142.09;4121411;28;20041;-68
2021/11/09 01:34:53;;;;;;;11.80;7.37;;;10.90;99.90;;;10.28;100.00;102140.16;4121173;28;20055;-68
2021/11/09 01:36:55;;;;;;;14.13;8.18;;;10.90;99.90;;;10.28;100.00;102140.16;4121050;28;20019;-68
2021/11/09 01:38:56;;;;;;;10.85;7.32;;;10.90;99.90;;;10.25;100.00;102137.75;4128507;28;20526;-68
2021/11/09 01:40:56;;;;;;;15.15;7.88;;;10.90;99.90;;;10.27;100.00;102133.22;4137106;28;20043;-68
2021/11/09 01:43:00;;;;;;;14.98;9.13;;;10.90;99.90;;;10.27;100.00;102133.22;4136426;28;20027;-68
2021/11/09 01:45:01;;;;;;;14.10;9.03;;;10.90;99.90;;;10.26;100.00;102126.25;4137029;28;20022;-67
2021/11/09 01:47:02;;;;;;;18.30;10.20;;;10.90;99.90;;;10.27;100.00;102134.06;4130837;28;20117;-68
2021/11/09 01:49:05;;;;;;;17.05;11.20;;;10.90;99.90;;;10.26;100.00;102126.25;4125367;28;20022;-68
2021/11/09 01:51:11;;;;;;;18.65;10.55;;;10.90;99.90;;;10.24;100.00;102141.38;4120940;28;20080;-68
2021/11/09 01:53:13;;;;;;;16.65;8.93;;;10.80;99.90;;;10.26;100.00;102129.75;4136933;28;20397;-68
2021/11/09 01:55:18;;;;;;;16.67;9.95;;;10.90;99.90;;;10.26;100.00;102139.44;4129544;28;20035;-68
2021/11/09 01:57:19;;;;;;;14.75;8.35;;;10.90;99.90;;;10.34;100.00;102142.31;4120734;28;20394;-68
2021/11/09 01:59:20;;;;;;;14.73;8.75;;;10.90;99.90;;;10.30;100.00;102140.91;4122027;28;20545;-67
2021/11/09 02:01:24;;;;;;;13.40;8.70;;;10.90;99.90;;;10.24;100.00;102136.09;4137091;28;20390;-67
2021/11/09 02:03:26;;;;;;;11.68;8.45;;;10.90;99.90;;;10.27;100.00;102135.88;4136980;28;20022;-68
2021/11/09 02:05:28;;;;;;;19.40;9.65;;;10.90;99.90;;;10.30;100.00;102130.34;4136828;28;20033;-68
2021/11/09 02:07:29;;;;;;;14.35;8.52;;;10.90;99.90;;;10.32;100.00;102131.91;4134522;28;20030;-68
2021/11/09 02:09:30;;;;;;;14.85;8.23;;;10.90;99.90;;;10.31;100.00;102126.72;4120732;28;20526;-67
2021/11/09 02:11:31;;;;;;;14.07;8.32;;;10.90;99.90;;;10.24;100.00;102128.19;4129087;28;20058;-68
2021/11/09 02:13:32;;;;;;;14.85;8.07;;;10.90;99.90;;;10.28;100.00;102140.16;4136689;28;20041;-68
2021/11/09 02:15:36;;;;;;;18.63;9.10;;;10.90;99.90;;;10.31;100.00;102130.22;4136548;28;20123;-68
2021/11/09 02:17:40;;;;;;;13.85;8.57;;;10.90;99.90;;;10.37;100.00;102135.00;4136622;28;20537;-68
2021/11/09 02:19:43;;;;;;;14.98;9.10;;;10.90;99.90;;;10.29;100.00;102137.41;4136594;28;20030;-68
2021/11/09 02:21:44;;;;;;;16.75;9.82;;;10.90;99.90;;;10.23;100.00;102140.53;4136353;28;20090;-68
2021/11/09 02:23:47;;;;;;;13.00;9.05;;;10.80;99.90;;;10.18;100.00;102137.44;4136684;28;20089;-68
2021/11/09 02:25:48;;;;;;;23.00;12.30;;;10.80;99.90;;;10.18;100.00;102139.22;4136213;28;20080;-68
2021/11/09 02:27:49;;;;;;;23.20;12.60;;;10.80;99.90;;;10.18;100.00;102137.44;4136484;28;20033;-68
2021/11/09 02:29:50;;;;;;;25.67;11.75;;;10.80;99.90;;;10.16;100.00;102130.56;4136337;28;20413;-68
2021/11/09 02:31:51;;;;;;;18.27;11.55;;;10.80;99.90;;;10.16;100.00;102123.50;4136566;28;20120;-68
2021/11/09 02:33:53;;;;;;;15.25;10.27;;;10.80;99.90;;;10.17;100.00;102130.47;4136374;28;20041;-68
2021/11/09 02:35:54;;;;;;;19.52;11.23;;;10.80;99.90;;;10.13;100.00;102130.78;4136081;28;20032;-68
2021/11/09 02:37:58;;;;;;;15.95;9.68;;;10.70;99.90;;;10.17;100.00;102130.47;4136002;28;20038;-68
2021/11/09 02:39:59;;;;;;;17.92;10.88;;;10.80;99.90;;;10.18;100.00;102136.59;4135916;28;20053;-68
2021/11/09 02:42:00;;;;;;;22.60;10.63;;;10.80;99.90;;;10.20;100.00;102132.03;4136318;28;20105;-68
2021/11/09 02:44:02;;;;;;;29.02;14.15;;;10.80;99.90;;;10.16;100.00;102125.28;4136401;28;20039;-68
2021/11/09 02:48:25;;;;;;;17.77;11.25;;;10.80;99.90;;;10.17;100.00;102135.75;4136020;28;20065;-68
2021/11/09 02:50:31;;;;;;;21.52;10.93;;;10.80;99.90;;;10.19;100.00;102133.81;4136313;28;20042;-68
2021/11/09 02:52:34;;;;;;;20.45;10.80;;;10.80;99.90;;;10.18;100.00;102136.59;4135874;28;20117;-67
2021/11/09 02:54:38;;;;;;;22.08;10.45;;;10.80;99.90;;;10.20;100.00;102132.03;4135895;28;20030;-68
2021/11/09 02:56:46;;;;;;;23.33;11.13;;;10.70;99.90;;;10.19;100.00;102133.81;4135885;28;20026;-68
2021/11/09 03:01:20;;;;;;;20.45;12.07;;;10.70;99.90;;;10.17;100.00;102126.97;4134688;28;20030;-68
2021/11/09 03:03:34;;;;;;;16.23;10.55;;;10.70;99.90;;;10.16;100.00;102122.66;4127203;28;20026;-67
2021/11/09 03:06:09;;;;;;;19.10;11.82;;;10.70;99.90;;;10.16;100.00;102117.38;4135838;28;20038;-68
2021/11/09 03:08:15;;;;;;;19.88;11.70;;;10.70;99.90;;;10.15;100.00;102118.38;4135528;28;20053;-68
2021/11/09 03:10:53;;;;;;;22.02;12.02;;;10.70;99.90;;;10.13;100.00;102118.47;4135863;28;20026;-68
2021/11/09 03:12:46;;;;;;;21.52;10.80;;;10.70;99.90;;;10.03;100.00;102113.03;4136567;28;20568;-68
2021/11/09 03:14:47;;;;;;;16.70;10.52;;;10.70;99.90;;;10.04;100.00;102113.88;4135941;28;20026;-68
2021/11/09 03:16:49;;;;;;;15.95;8.82;;;10.60;99.90;;;10.03;100.00;102115.66;4135761;28;20081;-67
2021/11/09 03:47:05;;;;;;;15.82;9.57;;;10.40;99.90;;;9.84;100.00;102098.78;4135350;28;20065;-68
2021/11/09 03:49:07;;;;;;;16.52;9.65;;;10.30;99.90;;;9.81;100.00;102101.66;4125774;28;20027;-68
2021/11/09 03:51:08;;;;;;;16.65;9.43;;;10.40;99.90;;;9.80;100.00;102108.69;4132392;28;20116;-68
2021/11/09 03:53:25;;;;;;;18.23;9.77;;;10.40;99.90;;;9.81;100.00;102107.75;4135739;28;20929;-68
2021/11/09 03:57:49;;;;;;;13.88;9.60;;;10.30;99.90;;;9.74;100.00;102117.06;4132359;28;20038;-68
2021/11/09 04:04:54;;;;;;;20.48;10.63;;;10.30;99.90;;;9.75;100.00;102120.56;4118415;28;20243;-68
2021/11/09 04:08:00;;;;;;;16.58;10.00;;;10.30;99.90;;;9.75;100.00;102116.13;4131093;28;20254;-68
2021/11/09 04:09:34;;;;;;;12.98;10.10;;;10.40;99.90;;;9.79;100.00;102125.50;4142192;28;20053;-68
2021/11/09 04:19:12;;;;;;;17.63;9.77;;;10.40;99.90;;;9.82;100.00;102109.44;4144552;28;20130;-68
2021/11/09 04:25:50;;;;;;;17.50;10.43;;;10.40;99.90;;;9.70;100.00;102120.91;4127054;28;20113;-68
2021/11/09 05:09:16;;;;;;;15.50;8.65;;;10.30;99.90;;;9.77;100.00;102143.19;4138078;28;20025;-68
2021/11/09 05:10:44;;;;;;;16.10;7.75;;;10.30;99.90;;;9.85;100.00;102142.63;4141349;28;20629;-68
2021/11/09 05:12:45;;;;;;;17.05;7.53;;;10.40;99.90;;;9.77;100.00;102137.91;4137792;28;20030;-67
2021/11/09 05:14:46;;;;;;;12.20;7.75;;;10.40;99.90;;;9.72;100.00;102134.81;4137961;28;20026;-67
2021/11/09 05:16:48;;;;;;;13.68;7.95;;;10.40;99.90;;;9.76;100.00;102140.69;4137386;28;20026;-67
2021/11/09 05:18:49;;;;;;;13.32;7.18;;;10.40;99.90;;;9.78;100.00;102134.34;4136408;28;20037;-68
2021/11/09 05:20:50;;;;;;;16.10;6.75;;;10.40;99.90;;;9.77;100.00;102137.91;4137719;28;20113;-68
2021/11/09 05:22:51;;;;;;;18.92;8.18;;;10.30;99.90;;;9.73;100.00;102140.94;4137490;28;20391;-68
2021/11/09 05:24:52;;;;;;;11.30;7.65;;;10.30;99.90;;;9.74;100.00;102134.69;4137423;28;20022;-68
2021/11/09 05:26:53;;;;;;;17.20;7.50;;;10.40;99.90;;;9.76;100.00;102130.16;4137229;28;20065;-68
2021/11/09 05:28:54;;;;;;;16.75;8.05;;;10.40;99.90;;;9.75;100.00;102139.00;4132371;28;20027;-68
2021/11/09 05:30:55;;;;;;;15.45;8.05;;;10.40;99.90;;;9.80;100.00;102142.97;4129960;28;20052;-68
2021/11/09 05:32:59;;;;;;;14.48;8.20;;;10.40;99.90;;;9.80;100.00;102137.69;4137529;28;20088;-68
2021/11/09 05:35:01;;;;;;;11.48;6.95;;;10.40;99.90;;;9.81;100.00;102136.75;4137507;28;20034;-68
2021/11/09 05:37:03;;;;;;;11.70;6.65;;;10.40;99.90;;;9.84;100.00;102131.25;4136946;28;20065;-68
2021/11/09 05:39:15;;;;;;;9.75;6.22;;;10.40;99.90;;;10.03;100.00;102141.22;4137490;28;20030;-68
2021/11/09 05:41:18;;;;;;;9.93;6.20;;;10.40;99.90;;;9.92;100.00;102131.47;4136850;28;20043;-68
2021/11/09 05:43:19;;;;;;;13.02;7.35;;;10.40;99.90;;;9.95;100.00;102135.66;4137234;28;20027;-68
2021/11/09 05:45:20;;;;;;;13.43;6.82;;;10.40;99.90;;;9.93;100.00;102142.88;4137381;28;20026;-68
2021/11/09 05:47:21;;;;;;;11.65;6.38;;;10.50;99.90;;;9.89;100.00;102142.25;4136962;28;20517;-68
2021/11/09 05:49:25;;;;;;;11.63;6.05;;;10.40;99.90;;;9.84;100.00;102136.50;4125142;28;20029;-68
2021/11/09 05:51:26;;;;;;;10.30;6.10;;;10.40;99.90;;;9.88;100.00;102134.50;4123374;28;20035;-67
2021/11/09 05:53:26;;;;;;;12.75;7.28;;;10.50;99.90;;;9.85;100.00;102140.84;4136211;28;20093;-68
2021/11/09 05:55:28;;;;;;;13.57;7.90;;;10.50;99.90;;;9.89;100.00;102141.41;4126018;28;20031;-68
2021/11/09 05:57:29;;;;;;;13.13;6.18;;;10.50;99.90;;;9.91;100.00;102145.63;4132672;28;20090;-68
2021/11/09 05:59:30;;;;;;;14.70;7.85;;;10.50;99.90;;;9.92;100.00;102147.28;4121608;28;20035;-68
2021/11/09 06:01:31;;;;;;;15.02;6.93;;;10.50;99.90;;;9.89;100.00;102142.25;4126183;28;20553;-68
2021/11/09 06:03:32;;;;;;;14.57;7.20;;;10.50;99.90;;;9.86;100.00;102139.00;4136898;28;20466;-68
2021/11/09 06:05:33;;;;;;;10.90;6.82;;;10.50;99.90;;;9.90;100.00;102141.31;4125742;28;20057;-68
2021/11/09 06:07:34;;;;;;;14.02;6.93;;;10.50;99.90;;;9.91;100.00;102144.78;4134729;28;20026;-68
2021/11/09 06:09:35;;;;;;;16.85;6.90;;;10.50;99.90;;;9.91;100.00;102153.53;4136903;28;20026;-68
2021/11/09 06:11:36;;;;;;;12.27;6.85;;;10.50;99.90;;;9.93;100.00;102153.41;4136884;28;20573;-67
2021/11/09 06:13:37;;;;;;;12.88;6.65;;;10.50;99.90;;;9.95;100.00;102156.75;4136736;28;20038;-68
2021/11/09 06:15:38;;;;;;;11.68;6.22;;;10.50;99.90;;;9.92;100.00;102157.84;4135857;28;20031;-68
2021/11/09 06:17:39;;;;;;;10.52;6.15;;;10.50;99.90;;;9.86;100.00;102162.72;4120377;28;20086;-68
2021/11/09 06:19:40;;;;;;;8.60;5.38;;;10.50;99.90;;;9.96;100.00;102171.63;4120724;28;20027;-68
2021/11/09 06:21:41;;;;;;;11.52;6.45;;;10.60;99.90;;;9.98;100.00;102173.19;4131338;28;20045;-68
2021/11/09 06:23:42;;;;;;;9.15;5.65;;;10.60;99.90;;;9.96;100.00;102169.00;4136481;28;20049;-68
2021/11/09 06:25:45;;;;;;;11.07;5.63;;;10.60;99.90;;;9.95;100.00;102172.56;4136601;28;20061;-68
2021/11/09 06:27:46;;;;;;;11.88;6.13;;;10.60;99.90;;;9.91;100.00;102174.63;4136458;28;20085;-68
2021/11/09 06:29:47;;;;;;;8.15;5.00;;;10.50;99.90;;;9.92;100.00;102178.94;4136120;28;20247;-68
2021/11/09 06:31:49;;;;;;;10.40;6.32;;;10.50;99.90;;;10.02;100.00;102172.00;4136452;28;20502;-68
2021/11/09 06:33:50;;;;;;;12.93;6.32;;;10.60;99.90;;;10.05;100.00;102170.94;4135276;28;20065;-68
2021/11/09 06:35:51;;;;;;;10.45;5.85;;;10.60;99.90;;;10.01;100.00;102175.59;4136410;28;20050;-68
2021/11/09 06:37:53;;;;;;;9.02;5.57;;;10.60;99.90;;;10.00;100.00;102181.00;4136132;28;20033;-68
2021/11/09 06:39:53;;;;;;;12.27;5.70;;;10.50;99.90;;;9.97;100.00;102173.31;4136072;28;20037;-68
2021/11/09 06:41:54;;;;;;;12.93;5.97;;;10.60;99.90;;;9.98;100.00;102175.81;4136288;28;20030;-68
2021/11/09 06:43:56;;;;;;;13.38;6.75;;;10.60;99.90;;;9.98;100.00;102173.19;4136204;28;20085;-68
2021/11/09 06:45:57;;;;;;;12.75;8.85;;;10.60;99.90;;;10.01;100.00;102180.03;4136003;28;20037;-68
2021/11/09 06:47:58;;;;;;;15.30;9.70;;;10.60;99.90;;;9.97;100.00;102179.41;4134971;28;20022;-68
2021/11/09 06:49:59;;;;;;;13.95;9.68;;;10.60;99.90;;;9.96;100.00;102184.81;4120158;28;20092;-68
2021/11/09 06:52:00;;;;;;;19.23;9.85;;;10.60;99.90;;;9.93;100.00;102188.53;4119667;28;20034;-68
2021/11/09 06:54:01;;;;;;;15.80;8.52;;;10.60;99.90;;;9.95;100.00;102185.75;4130503;28;20038;-68
2021/11/09 06:56:03;;;;;;;12.52;8.65;;;10.50;99.90;;;9.98;100.00;102182.88;4122856;28;20037;-68
2021/11/09 06:58:04;;;;;;;14.20;8.98;;;10.60;99.90;;;9.96;100.00;102184.81;4135776;28;20034;-68
2021/11/09 07:00:09;;;;;;;13.25;7.63;;;10.60;99.90;;;9.96;100.00;102176.91;4136004;28;20038;-68
2021/11/09 07:02:11;;;;;;;8.65;6.15;;;10.50;99.90;;;9.96;100.00;102171.63;4136210;28;20030;-68
2021/11/09 07:04:12;;;;;;;15.35;8.30;;;10.60;99.90;;;9.97;100.00;102179.41;4135241;28;20062;-68
2021/11/09 07:06:13;;;;;;;14.75;8.23;;;10.60;99.90;;;10.04;100.00;102177.16;4119062;28;20034;-68
2021/11/09 07:08:14;;;;;;;13.55;9.70;;;10.60;99.90;;;9.92;100.00;102168.38;4129532;28;20081;-68
2021/11/09 07:10:16;;;;;;;17.58;11.02;;;10.60;99.90;;;10.02;100.00;102168.53;4136556;28;20026;-68
2021/11/09 07:12:17;;;;;;;17.25;10.25;;;10.60;99.90;;;9.95;100.00;102172.56;4136692;28;20026;-68
2021/11/09 07:14:19;;;;;;;13.23;9.15;;;10.60;99.90;;;9.94;100.00;102170.91;4136529;28;20022;-68
2021/11/09 07:16:22;;;;;;;13.80;9.75;;;10.60;99.90;;;9.91;100.00;102176.41;4136686;28;20390;-68
2021/11/09 07:18:23;;;;;;;11.93;8.95;;;10.50;99.90;;;9.79;100.00;102175.56;4136701;28;20030;-68
2021/11/09 07:20:24;;;;;;;17.40;10.48;;;10.50;99.90;;;9.78;100.00;102178.28;4136405;28;20551;-68
2021/11/09 07:22:26;;;;;;;13.65;9.15;;;10.50;99.90;;;9.84;100.00;102185.75;4136798;28;20046;-68
2021/11/09 07:24:30;;;;;;;15.18;9.32;;;10.50;99.90;;;9.92;100.00;102192.09;4136729;28;20410;-68
2021/11/09 07:26:31;;;;;;;11.25;8.75;;;10.50;99.90;;;9.96;100.00;102182.19;4136487;28;20031;-68
2021/11/09 07:28:33;;;;;;;13.50;9.50;;;10.50;99.90;;;9.99;100.00;102189.84;4136815;28;20522;-68
2021/11/09 07:30:47;;;;;;;11.27;7.95;;;10.50;99.90;;;10.01;100.00;102201.09;4136472;28;20400;-68
2021/11/09 07:32:48;;;;;;;15.30;9.13;;;10.50;99.90;;;9.93;100.00;102200.84;4136268;28;20034;-68
2021/11/09 07:34:49;;;;;;;15.02;9.85;;;10.60;99.90;;;9.79;100.00;102188.75;4136517;28;20026;-68
2021/11/09 07:36:51;;;;;;;14.57;9.52;;;10.60;99.90;;;9.96;100.00;102206.75;4136580;28;20335;-68
2021/11/09 07:38:53;;;;;;;14.73;9.15;;;10.60;99.90;;;9.98;100.00;102211.88;4136554;28;20045;-68
2021/11/09 07:40:54;;;;;;;12.80;10.23;;;10.60;99.90;;;9.89;100.00;102210.78;4137105;28;20057;-68
2021/11/09 07:42:55;;;;;;;13.05;9.48;;;10.60;99.90;;;9.86;100.00;102216.28;4139893;28;20026;-68
2021/11/09 07:44:56;;;;;;;14.00;9.18;;;10.50;99.90;;;9.84;100.00;102217.38;4139782;28;20030;-68
2021/11/09 07:46:57;;;;;;;12.27;7.72;;;10.50;99.90;;;9.87;100.00;102223.25;4140044;28;20038;-68
2021/11/09 07:48:58;;;;;;;14.15;8.48;;;10.50;99.90;;;9.94;100.00;102226.28;4138897;28;20033;-68
2021/11/09 07:51:00;;;;;;;13.40;8.77;;;10.50;99.90;;;9.94;100.00;102228.91;4127221;28;20050;-67
2021/11/09 07:53:03;;;;;;;15.95;10.40;;;10.50;99.90;;;9.90;100.00;102236.19;4122225;28;20035;-67
2021/11/09 07:55:07;;;;;;;14.48;8.40;;;10.60;99.90;;;9.91;100.00;102237.91;4121842;28;20035;-66
2021/11/09 07:57:11;;;;;;;12.73;8.70;;;10.60;99.90;;;9.89;100.00;102226.59;4122187;28;20030;-66
2021/11/09 07:59:24;;;;;;;14.80;7.97;;;10.60;99.90;;;9.92;100.00;102239.56;4153109;28;20106;-67
2021/11/09 08:01:41;;;;;;;13.00;8.38;;;10.60;99.90;;;9.85;100.00;102240.13;4126885;28;20125;-67
2021/11/09 08:03:59;;;;;;;13.00;8.57;;;10.60;99.90;;;9.78;100.00;102244.19;4138872;28;20592;-67
2021/11/09 08:06:12;;;;;;;14.90;9.27;;;10.50;99.90;;;9.72;100.00;102242.00;4138305;28;20034;-66
2021/11/09 08:08:15;;;;;;;14.45;9.07;;;10.50;99.90;;;9.73;100.00;102247.16;4138561;28;20070;-67
2021/11/09 08:10:16;;;;;;;13.88;8.77;;;10.40;99.90;;;9.75;100.00;102249.69;4139028;28;20482;-67
2021/11/09 08:12:16;;;;;;;10.80;8.40;;;10.40;99.90;;;9.64;100.00;102236.47;4138553;28;20069;-67
2021/11/09 08:14:18;;;;;;;11.90;9.15;;;10.30;99.90;;;9.59;100.00;102239.41;4138760;28;20027;-66
2021/11/09 08:16:19;;;;;;;11.98;8.82;;;10.30;99.90;;;9.59;100.00;102242.06;4138665;28;20031;-67
2021/11/09 08:18:21;;;;;;;13.68;9.05;;;10.20;99.90;;;9.55;100.00;102242.41;4138580;28;20034;-67
2021/11/09 08:20:22;;;;;;;19.60;11.10;;;10.20;99.90;;;9.47;100.00;102248.22;4138347;28;20033;-66
2021/11/09 08:22:23;;;;;;;17.30;9.75;;;10.20;99.90;;;9.44;100.00;102248.44;4138377;28;20486;-66
2021/11/09 08:24:26;;;;;;;13.32;9.27;;;10.20;99.90;;;9.49;100.00;102250.75;4138620;28;20523;-67
2021/11/09 08:26:28;;;;;;;17.02;9.85;;;10.20;99.90;;;9.60;100.00;102256.06;4138554;28;20029;-67
2021/11/09 08:28:29;;;;;;;14.15;8.95;;;10.30;99.90;;;9.60;100.00;102251.66;4138474;28;20022;-67
2021/11/09 08:30:31;;;;;;;13.52;8.68;;;10.30;99.90;;;9.67;100.00;102259.94;4138369;28;20045;-66
2021/11/09 08:32:32;;;;;;;12.63;8.82;;;10.30;99.90;;;9.70;100.00;102257.94;4137115;28;20085;-67
2021/11/09 08:34:33;;;;;;;14.20;8.88;;;10.40;99.90;;;9.80;100.00;102255.44;4131855;28;20109;-67
2021/11/09 08:36:34;;;;;;;13.57;8.65;;;10.40;99.90;;;9.85;100.00;102263.88;4138042;28;20033;-67
2021/11/09 08:38:37;;;;;;;13.60;10.00;;;10.40;99.90;;;9.84;100.00;102259.53;4138350;28;20104;-66
2021/11/09 08:40:39;;;;;;;14.98;9.10;;;10.50;99.90;;;9.86;100.00;102262.88;4136952;28;20054;-67
2021/11/09 08:42:47;;;;;;;19.88;9.77;;;10.50;99.90;;;9.85;100.00;102266.50;4138435;28;20560;-67
2021/11/09 08:44:56;;;;;;;16.23;11.02;;;10.60;99.90;;;9.85;100.00;102256.81;4138046;28;20026;-67
2021/11/09 08:47:00;;;;;;;21.23;12.02;;;10.60;99.90;;;9.82;100.00;102262.31;4138334;28;20034;-67
2021/11/09 08:49:02;;;;;;;18.98;11.63;;;10.60;99.90;;;9.84;100.00;102264.81;4129300;28;20065;-67
2021/11/09 08:51:08;;;;;;;17.67;10.48;;;10.60;99.90;;;9.90;100.00;102259.91;4121710;28;20073;-67
2021/11/09 08:53:20;;;;;;;19.75;11.32;;;10.70;99.90;;;9.95;100.00;102267.47;4135892;28;20027;-67
2021/11/09 08:55:40;;;;;;;33.13;14.73;;;10.60;99.90;;;9.93;100.00;102264.13;4129617;28;20080;-67
2021/11/09 09:04:43;;;;;;;19.35;7.05;;;10.70;99.90;;;9.96;100.00;102261.25;4137994;28;20042;-67
2021/11/09 09:06:53;;;;;;;20.17;7.18;;;10.70;99.90;;;10.06;100.00;102266.69;4137748;28;20105;-66
2021/11/09 09:08:56;;;;;;;16.10;6.88;;;10.70;99.90;;;9.90;99.91;102256.44;4137960;28;20042;-67
2021/11/09 09:10:57;;;;;;;15.18;7.20;;;10.60;99.90;;;9.77;100.00;102253.03;4137723;28;20034;-67
2021/11/09 09:12:58;;;;;;;13.45;6.43;;;10.50;99.90;;;9.82;100.00;102259.66;4137997;28;20120;-66
2021/11/09 09:14:59;;;;;;;10.30;5.95;;;10.50;99.90;;;9.79;100.00;102257.25;4137720;28;20034;-66
2021/11/09 09:17:02;;;;;;;14.45;6.28;;;10.40;99.90;;;9.80;100.00;102260.69;4137540;28;20031;-67
2021/11/09 09:19:05;;;;;;;15.63;5.57;;;10.40;99.90;;;9.77;100.00;102253.03;4137660;28;20093;-67
2021/11/09 09:21:29;;;;;;;14.88;6.20;;;10.40;99.90;;;9.78;100.00;102255.56;4137339;28;20030;-67
2021/11/09 09:23:35;;;;;;;12.25;6.47;;;10.40;99.90;;;9.73;100.00;102252.44;4137438;28;20394;-67
2021/11/09 09:55:40;;;;;;;15.52;5.63;;;11.50;99.90;;;10.55;99.51;102265.47;4121150;28;20035;-67
2021/11/09 09:57:41;;;;;;;12.82;5.95;;;11.50;99.90;;;10.67;97.99;102270.75;4120811;28;20114;-66
2021/11/09 09:59:46;;;;;;;15.38;6.60;;;11.60;99.90;;;10.60;98.60;102275.69;4121052;28;20513;-67
2021/11/09 10:02:26;;;;;;;;;;;11.50;99.90;;;10.39;99.04;102274.72;4121310;28;20027;-67
2021/11/09 10:04:31;;;;;;;15.60;6.70;;;11.50;99.90;;;10.31;99.37;102264.72;4121507;28;19910;-66
2021/11/09 10:06:46;;;;;;;14.93;5.60;;;11.40;99.90;;;10.29;100.00;102265.81;4132918;28;20049;-66
2021/11/09 10:08:50;;;;;;;12.65;6.25;;;11.30;99.90;;;10.26;100.00;102272.16;4136854;28;20049;-67
2021/11/09 10:10:51;;;;;;;15.57;5.60;;;11.20;99.90;;;10.47;100.00;102273.16;4136834;28;20042;-67
2021/11/09 10:13:13;;;;;;;14.95;5.93;;;11.20;99.90;;;10.50;100.00;102269.44;4136756;28;20022;-67
2021/11/09 10:15:18;;;;;;;15.13;6.90;;;11.30;99.90;;;10.70;99.32;102274.00;4136653;28;20026;-66
2021/11/09 10:17:25;;;;;;;14.98;7.28;;;11.30;99.90;;;10.75;98.38;102271.03;4136617;28;20062;-68
2021/11/09 10:19:33;;;;;;;12.88;6.70;;;11.40;99.90;;;10.84;98.08;102272.94;4136692;28;20588;-67
2021/11/09 10:21:40;;;;;;;19.55;7.22;;;11.40;99.90;;;10.92;97.97;102276.66;4136433;28;20033;-67
2021/11/09 10:23:41;;;;;;;14.38;5.82;;;11.50;99.90;;;10.81;97.34;102262.63;4136392;28;20226;-66
2021/11/09 10:25:44;;;;;;;12.32;5.60;;;11.50;99.90;;;10.82;97.87;102269.56;4136728;28;20133;-67
2021/11/09 10:27:49;;;;;;;16.27;5.95;;;11.50;99.90;;;10.74;98.32;102270.19;4136737;28;20034;-67
2021/11/09 10:29:52;;;;;;;15.43;5.07;;;11.60;99.90;;;10.79;98.08;102273.28;4136757;28;20504;-67
2021/11/09 10:31:53;;;;;;;18.13;6.53;;;11.50;99.90;;;10.76;98.22;102270.88;4136309;28;20034;-67
2021/11/09 10:33:54;;;;;;;17.42;6.18;;;11.60;99.90;;;10.76;98.42;102260.34;4136580;28;20030;-67
2021/11/09 10:35:56;;;;;;;13.52;5.82;;;11.60;99.90;;;10.74;98.07;102256.13;4136203;28;20097;-66